Time;durP1;ratioP1;P1;durP2;ratioP2;P2;SDS_P1;SDS_P2;PMS_P1;PMS_P2;Temp;Humidity;BMP_temperature;BMP_pressure;BME280_temperature;BME280_humidity;BME280_pressure;Samples;Min_cycle;Max_cycle;Signal;HPM_P1;HPM_P2
2022/10/04 00:00:25;;;;;;;;;;;11.00;99.90;;;;;;5082437;28;20356;-83
2022/10/04 00:02:53;;;;;;;;;;;11.00;99.90;;;;;;5088976;28;19932;-80
2022/10/04 00:05:23;;;;;;;;;;;11.00;99.90;;;;;;5080954;28;19977;-80
2022/10/04 00:07:52;;;;;;;;;;;11.10;99.90;;;;;;5081842;28;19924;-79
2022/10/04 00:10:22;;;;;;;;;;;11.10;99.90;;;;;;5077397;28;19928;-83
2022/10/04 00:12:50;;;;;;;;;;;11.10;99.90;;;;;;5078257;28;19939;-80
2022/10/04 00:15:22;;;;;;;;;;;11.10;99.90;;;;;;5083816;28;19994;-81
2022/10/04 00:18:00;;;;;;;;;;;11.10;99.90;;;;;;5077539;28;19987;-82
2022/10/04 00:20:46;;;;;;;;;;;11.10;99.90;;;;;;5079741;28;19928;-80
2022/10/04 00:23:27;;;;;;;;;;;11.10;99.90;;;;;;5080126;28;20030;-81
2022/10/04 00:25:59;;;;;;;;;;;11.10;99.90;;;;;;5081796;28;19974;-82
2022/10/04 00:28:31;;;;;;;;;;;11.10;99.90;;;;;;5082015;28;19923;-82
2022/10/04 00:31:23;;;;;;;;;;;11.10;99.90;;;;;;5078927;28;20014;-83
2022/10/04 00:33:51;;;;;;;;;;;11.10;99.90;;;;;;5082844;28;19939;-83
2022/10/04 00:36:37;;;;;;;;;;;11.00;99.90;;;;;;5094702;28;19928;-84
2022/10/04 00:39:13;;;;;;;;;;;11.00;99.90;;;;;;5089408;28;20077;-84
2022/10/04 00:41:52;;;;;;;;;;;11.00;99.90;;;;;;5090596;28;19978;-83
2022/10/04 00:44:23;;;;;;;;;;;11.30;99.90;;;;;;5086836;28;19942;-83
2022/10/04 00:46:51;;;;;;;;;;;10.90;99.90;;;;;;5088545;28;19928;-83
2022/10/04 00:49:21;;;;;;;;;;;10.80;99.90;;;;;;5085106;28;19974;-83
2022/10/04 00:51:50;;;;;;;;;;;10.80;99.90;;;;;;5083744;28;19928;-82
2022/10/04 00:54:19;;;;;;;;;;;10.70;99.90;;;;;;5083865;28;19929;-82
2022/10/04 00:56:51;;;;;;;;;;;10.70;99.90;;;;;;5088867;28;20538;-81
2022/10/04 00:59:36;;;;;;;;;;;10.70;99.90;;;;;;5074089;28;19929;-81
2022/10/04 01:02:04;;;;;;;;;;;10.60;99.90;;;;;;5092430;28;19931;-80
2022/10/04 01:04:35;;;;;;;;;;;10.60;99.90;;;;;;5092757;28;19928;-81
2022/10/04 01:07:04;;;;;;;;;;;10.60;99.90;;;;;;5088738;28;19962;-81
2022/10/04 01:09:32;;;;;;;;;;;10.50;99.90;;;;;;5072331;28;19928;-80
2022/10/04 01:12:03;;;;;;;;;;;10.50;99.90;;;;;;5094097;28;19924;-81
2022/10/04 01:14:35;;;;;;;;;;;10.40;99.90;;;;;;5077307;28;19928;-81
2022/10/04 01:17:02;;;;;;;;;;;10.40;99.90;;;;;;5081318;28;20026;-80
2022/10/04 01:19:30;;;;;;;;;;;10.40;99.90;;;;;;5086332;28;19983;-82
2022/10/04 01:21:58;;;;;;;;;;;10.40;99.90;;;;;;5080562;28;19935;-81
2022/10/04 01:24:32;;;;;;;;;;;10.40;99.90;;;;;;5082060;28;19924;-81
2022/10/04 01:26:59;;;;;;;;;;;10.40;99.90;;;;;;5077050;28;19955;-82
2022/10/04 01:29:28;;;;;;;;;;;10.40;99.90;;;;;;5085663;28;19933;-82
2022/10/04 01:31:57;;;;;;;;;;;10.50;99.90;;;;;;5072166;28;19990;-81
2022/10/04 01:34:24;;;;;;;;;;;10.50;99.90;;;;;;5087292;28;19928;-81
2022/10/04 01:36:53;;;;;;;;;;;10.50;99.90;;;;;;5073180;28;19924;-81
2022/10/04 01:39:21;;;;;;;;;;;10.50;99.90;;;;;;5082622;28;19925;-81
2022/10/04 01:41:52;;;;;;;;;;;10.50;99.90;;;;;;5083602;28;19924;-80
2022/10/04 01:44:23;;;;;;;;;;;10.50;99.90;;;;;;5071081;28;19924;-80
2022/10/04 01:46:52;;;;;;;;;;;10.50;99.90;;;;;;5091017;28;20516;-79
2022/10/04 01:49:20;;;;;;;;;;;10.50;99.90;;;;;;5084876;28;19999;-80
2022/10/04 01:51:50;;;;;;;;;;;10.50;99.90;;;;;;5072196;28;19982;-80
2022/10/04 01:54:18;;;;;;;;;;;10.50;99.90;;;;;;5081256;28;19932;-81
2022/10/04 01:56:47;;;;;;;;;;;10.40;99.90;;;;;;5089321;28;19934;-81
2022/10/04 01:59:19;;;;;;;;;;;10.40;99.90;;;;;;5092353;28;19966;-80
2022/10/04 02:01:48;;;;;;;;;;;10.40;99.90;;;;;;5080729;28;20366;-83
2022/10/04 02:04:16;;;;;;;;;;;10.40;99.90;;;;;;5081904;28;19932;-80
2022/10/04 02:06:44;;;;;;;;;;;10.40;99.90;;;;;;5076190;28;19929;-80
2022/10/04 02:09:14;;;;;;;;;;;10.40;99.90;;;;;;5091405;28;19963;-79
2022/10/04 02:11:42;;;;;;;;;;;10.40;99.90;;;;;;5091661;28;20621;-81
2022/10/04 02:14:14;;;;;;;;;;;10.40;99.90;;;;;;5090771;28;19960;-80
2022/10/04 02:16:43;;;;;;;;;;;10.40;99.90;;;;;;5077344;28;20314;-81
2022/10/04 02:19:11;;;;;;;;;;;10.30;99.90;;;;;;5080285;28;19924;-79
2022/10/04 02:21:38;;;;;;;;;;;10.30;99.90;;;;;;5082064;28;19931;-80
2022/10/04 02:24:07;;;;;;;;;;;10.20;99.90;;;;;;5087522;28;19935;-81
2022/10/04 02:26:34;;;;;;;;;;;10.20;99.90;;;;;;5072256;28;19967;-80
2022/10/04 02:29:01;;;;;;;;;;;11.60;99.90;;;;;;5073613;28;19942;-81
2022/10/04 02:34:14;;;;;;;;;;;10.20;99.90;;;;;;5075829;28;19925;-81
2022/10/04 02:36:41;;;;;;;;;;;10.20;99.90;;;;;;5076146;28;19928;-81
2022/10/04 02:39:10;;;;;;;;;;;10.30;99.90;;;;;;5075520;28;19928;-80
2022/10/04 02:41:39;;;;;;;;;;;10.30;99.90;;;;;;5082088;28;20015;-81
2022/10/04 02:44:10;;;;;;;;;;;10.40;99.90;;;;;;5076558;28;20510;-81
2022/10/04 02:46:41;;;;;;;;;;;10.50;99.90;;;;;;5071602;28;19978;-80
2022/10/04 02:49:13;;;;;;;;;;;10.50;99.90;;;;;;5082309;28;19932;-80
2022/10/04 02:51:45;;;;;;;;;;;10.60;99.90;;;;;;5080545;28;20373;-80
2022/10/04 02:54:16;;;;;;;;;;;10.70;99.90;;;;;;5082144;28;20039;-80
2022/10/04 02:56:43;;;;;;;;;;;10.70;99.90;;;;;;5078091;28;19977;-82
2022/10/04 02:59:15;;;;;;;;;;;10.70;99.90;;;;;;5079332;28;19928;-82
2022/10/04 03:01:46;;;;;;;;;;;10.80;99.90;;;;;;5081557;28;19987;-81
2022/10/04 03:04:14;;;;;;;;;;;10.80;99.90;;;;;;5082080;28;19934;-81
2022/10/04 03:06:44;;;;;;;;;;;10.80;99.90;;;;;;5080538;28;20443;-81
2022/10/04 03:09:12;;;;;;;;;;;10.80;99.90;;;;;;5081844;28;19974;-82
2022/10/04 03:11:39;;;;;;;;;;;10.70;99.90;;;;;;5078752;28;19940;-81
2022/10/04 03:14:09;;;;;;;;;;;10.60;99.90;;;;;;5080643;28;19929;-81
2022/10/04 03:16:36;;;;;;;;;;;10.60;99.90;;;;;;5081428;28;20023;-81
2022/10/04 03:19:03;;;;;;;;;;;10.50;99.90;;;;;;5081413;28;19932;-80
2022/10/04 03:21:31;;;;;;;;;;;10.50;99.90;;;;;;5081867;28;20343;-80
2022/10/04 03:24:00;;;;;;;;;;;10.60;99.90;;;;;;5080289;28;19947;-82
2022/10/04 03:26:29;;;;;;;;;;;10.60;99.90;;;;;;5082759;28;20372;-79
2022/10/04 03:28:56;;;;;;;;;;;10.60;99.90;;;;;;5087071;28;20467;-79
2022/10/04 03:31:25;;;;;;;;;;;10.70;99.90;;;;;;5079719;28;20364;-80
2022/10/04 03:33:53;;;;;;;;;;;10.70;99.90;;;;;;5071104;28;19936;-81
2022/10/04 03:36:23;;;;;;;;;;;10.80;99.90;;;;;;5087864;28;19932;-81
2022/10/04 03:38:52;;;;;;;;;;;10.80;99.90;;;;;;5082598;28;19950;-80
2022/10/04 03:41:21;;;;;;;;;;;10.80;99.90;;;;;;5070514;28;19924;-81
2022/10/04 03:43:49;;;;;;;;;;;10.80;99.90;;;;;;5078512;28;19955;-80
2022/10/04 03:46:17;;;;;;;;;;;10.70;99.90;;;;;;5076451;28;19940;-80
2022/10/04 03:48:45;;;;;;;;;;;10.60;99.90;;;;;;5083984;28;19928;-80
2022/10/04 03:51:14;;;;;;;;;;;10.80;99.90;;;;;;5080262;28;19932;-81
2022/10/04 03:53:42;;;;;;;;;;;11.00;99.90;;;;;;5078982;28;19929;-79
2022/10/04 03:56:11;;;;;;;;;;;10.50;99.90;;;;;;5086753;28;19924;-81
2022/10/04 03:58:39;;;;;;;;;;;10.50;99.90;;;;;;5082262;28;19928;-82
2022/10/04 04:01:20;;;;;;;;;;;10.40;99.90;;;;;;5076262;28;19979;-81
2022/10/04 04:03:52;;;;;;;;;;;10.40;99.90;;;;;;5088125;28;19928;-81
2022/10/04 04:06:19;;;;;;;;;;;10.40;99.90;;;;;;5087670;28;19959;-81
2022/10/04 04:08:49;;;;;;;;;;;10.40;99.90;;;;;;5084918;28;19928;-81
2022/10/04 04:11:18;;;;;;;;;;;10.40;99.90;;;;;;5076994;28;20633;-81
2022/10/04 04:13:49;;;;;;;;;;;10.40;99.90;;;;;;5079318;28;20395;-81
2022/10/04 04:16:18;;;;;;;;;;;10.40;99.90;;;;;;5074063;28;20016;-80
2022/10/04 04:18:46;;;;;;;;;;;10.30;99.90;;;;;;5077748;28;19954;-81
2022/10/04 04:21:16;;;;;;;;;;;10.30;99.90;;;;;;5076047;28;19928;-82
2022/10/04 04:23:47;;;;;;;;;;;10.20;99.90;;;;;;5088581;28;19924;-81
2022/10/04 04:26:18;;;;;;;;;;;10.20;99.90;;;;;;5084068;28;19936;-80
2022/10/04 04:28:49;;;;;;;;;;;10.10;99.90;;;;;;5086126;28;19933;-81
2022/10/04 04:31:20;;;;;;;;;;;10.10;99.90;;;;;;5083672;28;19932;-80
2022/10/04 04:33:49;;;;;;;;;;;10.00;99.90;;;;;;5074802;28;19962;-78
2022/10/04 04:36:17;;;;;;;;;;;9.90;99.90;;;;;;5092284;28;19929;-80
2022/10/04 04:41:26;;;;;;;;;;;9.80;99.90;;;;;;5074933;28;20891;-80
2022/10/04 04:43:55;;;;;;;;;;;9.80;99.90;;;;;;5084676;28;19929;-80
2022/10/04 04:46:22;;;;;;;;;;;9.70;99.90;;;;;;5080665;28;19983;-80
2022/10/04 04:48:50;;;;;;;;;;;9.60;99.90;;;;;;5082529;28;19958;-79
2022/10/04 04:51:19;;;;;;;;;;;9.60;99.90;;;;;;5075221;28;19924;-80
2022/10/04 04:53:48;;;;;;;;;;;9.50;99.90;;;;;;5078432;28;19932;-80
2022/10/04 04:56:18;;;;;;;;;;;9.50;99.90;;;;;;5076567;28;19928;-79
2022/10/04 04:58:46;;;;;;;;;;;9.50;99.90;;;;;;5078987;28;20493;-80
2022/10/04 05:01:21;;;;;;;;;;;9.40;99.90;;;;;;5076112;28;19935;-80
2022/10/04 05:03:59;;;;;;;;;;;9.40;99.90;;;;;;5085540;28;20018;-79
2022/10/04 05:06:28;;;;;;;;;;;9.40;99.90;;;;;;5079347;28;19967;-80
2022/10/04 05:08:54;;;;;;;;;;;9.40;99.90;;;;;;5080489;28;19998;-79
2022/10/04 05:11:22;;;;;;;;;;;9.40;99.90;;;;;;5087603;28;19931;-79
2022/10/04 05:13:52;;;;;;;;;;;9.50;99.90;;;;;;5090612;28;19931;-80
2022/10/04 05:16:22;;;;;;;;;;;9.50;99.90;;;;;;5088848;28;19951;-79
2022/10/04 05:18:54;;;;;;;;;;;9.50;99.90;;;;;;5087308;28;20298;-79
2022/10/04 05:21:23;;;;;;;;;;;9.50;99.90;;;;;;5084466;28;19924;-80
2022/10/04 05:23:50;;;;;;;;;;;9.60;99.90;;;;;;5089243;28;19924;-79
2022/10/04 05:26:24;;;;;;;;;;;9.60;99.90;;;;;;5088240;28;19985;-79
2022/10/04 05:28:51;;;;;;;;;;;9.50;99.90;;;;;;5086819;28;19974;-78
2022/10/04 05:31:28;;;;;;;;;;;9.50;99.90;;;;;;5088246;28;20289;-79
2022/10/04 05:33:57;;;;;;;;;;;9.50;99.90;;;;;;5090360;28;20604;-79
2022/10/04 05:36:34;;;;;;;;;;;9.50;99.90;;;;;;5087253;28;19928;-81
2022/10/04 05:39:05;;;;;;;;;;;9.50;99.90;;;;;;5083716;28;20407;-82
2022/10/04 05:41:38;;;;;;;;;;;9.40;99.90;;;;;;5077909;28;20404;-80
2022/10/04 05:44:17;;;;;;;;;;;9.40;99.90;;;;;;5085490;28;19951;-81
2022/10/04 05:46:46;;;;;;;;;;;9.40;99.90;;;;;;5075785;28;19928;-82
2022/10/04 05:49:14;;;;;;;;;;;9.40;99.90;;;;;;5073090;28;19967;-83
2022/10/04 05:51:48;;;;;;;;;;;9.30;99.90;;;;;;5105268;28;20163;-83
2022/10/04 05:54:22;;;;;;;;;;;9.30;99.90;;;;;;5090315;28;19924;-83
2022/10/04 05:57:08;;;;;;;;;;;9.40;99.90;;;;;;5100056;28;19955;-82
2022/10/04 05:59:59;;;;;;;;;;;9.40;99.90;;;;;;5096273;28;20018;-82
2022/10/04 06:02:37;;;;;;;;;;;9.50;99.90;;;;;;5080577;28;19925;-84
2022/10/04 06:05:20;;;;;;;;;;;9.50;99.90;;;;;;5083088;28;19944;-80
2022/10/04 06:07:50;;;;;;;;;;;9.70;99.90;;;;;;5084734;28;19931;-80
2022/10/04 06:10:24;;;;;;;;;;;9.70;99.90;;;;;;5083531;28;19929;-80
2022/10/04 06:12:54;;;;;;;;;;;9.70;99.90;;;;;;5086433;28;19928;-80
2022/10/04 06:15:40;;;;;;;;;;;9.80;99.90;;;;;;5080793;28;19928;-81
2022/10/04 06:18:25;;;;;;;;;;;9.90;99.90;;;;;;5085233;28;20014;-81
2022/10/04 06:20:58;;;;;;;;;;;10.00;99.90;;;;;;5082079;28;19924;-81
2022/10/04 06:23:26;;;;;;;;;;;10.10;99.90;;;;;;5087835;28;20009;-81
2022/10/04 06:25:58;;;;;;;;;;;10.20;99.90;;;;;;5091133;28;20022;-80
2022/10/04 06:28:29;;;;;;;;;;;10.30;99.90;;;;;;5090029;28;19928;-81
2022/10/04 06:31:09;;;;;;;;;;;10.50;99.90;;;;;;5083389;28;19970;-81
2022/10/04 06:33:44;;;;;;;;;;;10.60;99.90;;;;;;5079458;28;19929;-81
2022/10/04 06:36:27;;;;;;;;;;;10.80;99.90;;;;;;5079982;28;19958;-81
2022/10/04 06:39:12;;;;;;;;;;;11.00;99.90;;;;;;5094101;28;20344;-79
2022/10/04 06:41:46;;;;;;;;;;;11.30;99.90;;;;;;5092134;28;20387;-82
2022/10/04 06:44:32;;;;;;;;;;;11.70;99.90;;;;;;5094954;28;20019;-82
2022/10/04 06:47:08;;;;;;;;;;;12.00;99.90;;;;;;5073972;28;19929;-82
2022/10/04 06:49:39;;;;;;;;;;;12.20;99.90;;;;;;5092692;28;20645;-81
2022/10/04 06:52:23;;;;;;;;;;;12.40;99.90;;;;;;5088673;28;20849;-82
2022/10/04 06:55:04;;;;;;;;;;;12.60;99.90;;;;;;5081153;28;19928;-79
2022/10/04 06:57:39;;;;;;;;;;;12.70;99.90;;;;;;5076305;28;20221;-82
2022/10/04 07:00:13;;;;;;;;;;;12.90;99.90;;;;;;5083470;28;19932;-81
2022/10/04 07:02:42;;;;;;;;;;;13.10;99.90;;;;;;5084749;28;19935;-82
2022/10/04 07:05:18;;;;;;;;;;;13.30;99.90;;;;;;5081742;28;20359;-81
2022/10/04 07:07:47;;;;;;;;;;;13.60;99.90;;;;;;5086943;28;20496;-82
2022/10/04 07:10:22;;;;;;;;;;;13.80;99.90;;;;;;5081558;28;19938;-82
2022/10/04 07:12:53;;;;;;;;;;;14.00;99.90;;;;;;5084201;28;20025;-82
2022/10/04 07:15:24;;;;;;;;;;;14.30;99.90;;;;;;5080953;28;19932;-82
2022/10/04 07:17:51;;;;;;;;;;;14.50;99.90;;;;;;5082460;28;20342;-81
2022/10/04 07:20:21;;;;;;;;;;;14.80;99.90;;;;;;5081247;28;19942;-81
2022/10/04 07:22:53;;;;;;;;;;;15.10;99.90;;;;;;5083458;28;19932;-81
2022/10/04 07:25:22;;;;;;;;;;;15.00;99.90;;;;;;5085992;28;19946;-82
2022/10/04 07:29:19;;;;;;;;;;;15.10;99.90;;;;;;5089987;28;19924;-80
2022/10/04 07:30:42;;;;;;;;;;;15.20;99.90;;;;;;5089980;28;19973;-81
2022/10/04 07:33:14;;;;;;;;;;;15.30;99.90;;;;;;5082496;28;19928;-81
2022/10/04 07:35:46;;;;;;;;;;;15.50;99.90;;;;;;5095317;28;19928;-81
2022/10/04 07:38:16;;;;;;;;;;;15.60;99.90;;;;;;5101852;28;20064;-81
2022/10/04 07:40:50;;;;;;;;;;;15.60;99.90;;;;;;5098474;28;19950;-80
2022/10/04 07:43:23;;;;;;;;;;;15.60;99.90;;;;;;5097107;28;19982;-82
2022/10/04 07:45:50;;;;;;;;;;;15.60;99.90;;;;;;5093552;28;20672;-82
2022/10/04 07:48:22;;;;;;;;;;;15.50;99.90;;;;;;5085705;28;20552;-82
2022/10/04 07:50:57;;;;;;;;;;;15.40;99.90;;;;;;5084769;28;19989;-83
2022/10/04 07:53:27;;;;;;;;;;;15.20;99.90;;;;;;5083978;28;19932;-82
2022/10/04 07:55:57;;;;;;;;;;;15.00;99.90;;;;;;5081736;28;19929;-82
2022/10/04 07:58:31;;;;;;;;;;;14.80;99.90;;;;;;5088555;28;19932;-82
2022/10/04 08:01:00;;;;;;;;;;;14.50;99.90;;;;;;5093210;28;19924;-82
2022/10/04 08:03:32;;;;;;;;;;;14.50;99.90;;;;;;5096530;28;19936;-82
2022/10/04 08:06:09;;;;;;;;;;;14.40;99.90;;;;;;5081825;28;19936;-80
2022/10/04 08:08:43;;;;;;;;;;;14.30;99.90;;;;;;5084857;28;20023;-78
2022/10/04 08:11:22;;;;;;;;;;;14.20;99.90;;;;;;5093746;28;19950;-83
2022/10/04 08:13:53;;;;;;;;;;;14.30;99.90;;;;;;5096985;28;20026;-82
2022/10/04 08:16:26;;;;;;;;;;;14.40;99.90;;;;;;5091530;28;20347;-82
2022/10/04 08:19:03;;;;;;;;;;;14.70;99.90;;;;;;5079449;28;19928;-83
2022/10/04 08:21:35;;;;;;;;;;;15.00;99.90;;;;;;5096473;28;20346;-82
2022/10/04 08:24:07;;;;;;;;;;;15.30;99.90;;;;;;5099279;28;19934;-81
2022/10/04 08:26:40;;;;;;;;;;;15.70;99.90;;;;;;5093225;28;20334;-81
2022/10/04 08:32:12;;;;;;;;;;;16.50;99.90;;;;;;5094985;28;19932;-79
2022/10/04 08:34:45;;;;;;;;;;;16.90;99.90;;;;;;5078054;28;19932;-80
2022/10/04 08:37:19;;;;;;;;;;;17.30;99.90;;;;;;5079045;28;19928;-82
2022/10/04 08:39:53;;;;;;;;;;;18.30;99.90;;;;;;5077990;28;19925;-80
2022/10/04 08:42:40;;;;;;;;;;;18.30;99.90;;;;;;5088950;28;19951;-79
2022/10/04 08:45:22;;;;;;;;;;;18.70;99.90;;;;;;5080314;28;19964;-80
2022/10/04 08:48:09;;;;;;;;;;;18.90;99.90;;;;;;5038977;28;20430;-79
2022/10/04 08:50:51;;;;;;;;;;;18.90;99.90;;;;;;5083930;28;19970;-83
2022/10/04 08:53:37;;;;;;;;;;;18.70;99.90;;;;;;5021932;28;19928;-80
2022/10/04 08:56:10;;;;;;;;;;;18.50;99.90;;;;;;5077549;28;19936;-80
2022/10/04 08:58:48;;;;;;;;;;;18.10;99.90;;;;;;5082164;28;20447;-79
2022/10/04 09:01:39;;;;;;;;;;;17.90;99.90;;;;;;5077845;28;19932;-79
2022/10/04 09:04:24;;;;;;;;;;;17.50;99.90;;;;;;5086333;28;19967;-79
2022/10/04 09:06:57;;;;;;;;;;;17.30;99.90;;;;;;5090107;28;19963;-80
2022/10/04 09:09:56;;;;;;;;;;;17.20;99.90;;;;;;5088828;28;20356;-81
2022/10/04 09:12:40;;;;;;;;;;;17.10;99.90;;;;;;5090339;28;19935;-79
2022/10/04 09:15:14;;;;;;;;;;;16.80;99.90;;;;;;5076429;28;20553;-80
2022/10/04 09:17:47;;;;;;;;;;;16.50;99.90;;;;;;5076360;28;19944;-82
2022/10/04 09:20:20;;;;;;;;;;;16.40;99.90;;;;;;5083119;28;19924;-81
2022/10/04 09:22:48;;;;;;;;;;;16.30;99.90;;;;;;5096121;28;20012;-81
2022/10/04 09:25:27;;;;;;;;;;;16.20;99.90;;;;;;5090817;28;19967;-81
2022/10/04 09:28:12;;;;;;;;;;;16.10;99.90;;;;;;5087830;28;19928;-81
2022/10/04 09:30:52;;;;;;;;;;;16.10;99.90;;;;;;5073439;28;19928;-78
2022/10/04 09:33:32;;;;;;;;;;;16.00;99.90;;;;;;5075665;28;19940;-79
2022/10/04 09:36:05;;;;;;;;;;;16.10;99.90;;;;;;5079912;28;19977;-80
2022/10/04 09:39:03;;;;;;;;;;;16.30;99.90;;;;;;5072638;28;20395;-80
2022/10/04 09:41:35;;;;;;;;;;;16.50;99.90;;;;;;5009132;28;19969;-80
2022/10/04 09:44:25;;;;;;;;;;;16.70;99.90;;;;;;5063469;28;19928;-80
2022/10/04 09:47:04;;;;;;;;;;;16.90;99.90;;;;;;5078278;28;19936;-80
2022/10/04 09:49:40;;;;;;;;;;;17.10;99.90;;;;;;5080791;28;19936;-80
2022/10/04 09:52:16;;;;;;;;;;;17.20;99.90;;;;;;5079152;28;19936;-80
2022/10/04 09:55:03;;;;;;;;;;;17.20;99.90;;;;;;5080881;28;19929;-80
2022/10/04 09:57:33;;;;;;;;;;;17.20;99.90;;;;;;5080581;28;19924;-80
2022/10/04 10:00:13;;;;;;;;;;;17.20;99.90;;;;;;5080988;28;19924;-80
2022/10/04 10:03:01;;;;;;;;;;;17.10;99.90;;;;;;5079223;28;20406;-80
2022/10/04 10:05:44;;;;;;;;;;;17.20;99.90;;;;;;5071456;28;19932;-80
2022/10/04 10:08:15;;;;;;;;;;;17.30;99.90;;;;;;5090552;28;20462;-80
2022/10/04 10:13:50;;;;;;;;;;;17.50;99.90;;;;;;5087539;28;19981;-80
2022/10/04 10:16:24;;;;;;;;;;;17.60;99.90;;;;;;5078881;28;19946;-79
2022/10/04 10:18:58;;;;;;;;;;;17.70;99.90;;;;;;5076226;28;20449;-80
2022/10/04 10:21:42;;;;;;;;;;;17.80;99.90;;;;;;5075112;28;19947;-79
2022/10/04 10:24:19;;;;;;;;;;;17.90;99.90;;;;;;5074640;28;19932;-80
2022/10/04 10:26:54;;;;;;;;;;;18.00;99.90;;;;;;5082118;28;20038;-80
2022/10/04 10:29:28;;;;;;;;;;;18.30;99.90;;;;;;5082867;28;20281;-80
2022/10/04 10:32:04;;;;;;;;;;;18.30;99.90;;;;;;5073311;28;19970;-81
2022/10/04 10:34:54;;;;;;;;;;;18.50;99.90;;;;;;5071657;28;19928;-81
2022/10/04 10:37:32;;;;;;;;;;;18.60;99.90;;;;;;5076384;28;19936;-80
2022/10/04 10:40:23;;;;;;;;;;;18.90;99.90;;;;;;5075869;28;21761;-79
2022/10/04 10:43:05;;;;;;;;;;;18.90;99.90;;;;;;5054241;28;19933;-80
2022/10/04 10:45:39;;;;;;;;;;;19.00;99.90;;;;;;5082155;28;19928;-81
2022/10/04 10:48:13;;;;;;;;;;;19.10;99.90;;;;;;5084404;28;20315;-80
2022/10/04 10:50:58;;;;;;;;;;;19.30;99.90;;;;;;5088635;28;20046;-80
2022/10/04 10:53:45;;;;;;;;;;;19.40;99.90;;;;;;5092289;28;19967;-79
2022/10/04 10:56:39;;;;;;;;;;;19.50;99.90;;;;;;5087352;28;20457;-78
2022/10/04 10:59:20;;;;;;;;;;;19.50;99.90;;;;;;5033946;28;20019;-80
2022/10/04 11:02:06;;;;;;;;;;;19.70;99.90;;;;;;5085355;28;20114;-78
2022/10/04 11:04:40;;;;;;;;;;;19.70;99.90;;;;;;5077889;28;20296;-80
2022/10/04 11:07:21;;;;;;;;;;;19.80;99.90;;;;;;5077822;28;19987;-80
2022/10/04 11:10:03;;;;;;;;;;;19.80;99.90;;;;;;5093844;28;19925;-79
2022/10/04 11:12:50;;;;;;;;;;;19.70;99.90;;;;;;5076784;28;19981;-79
2022/10/04 11:15:37;;;;;;;;;;;19.90;99.90;;;;;;5077199;28;20382;-80
2022/10/04 11:18:34;;;;;;;;;;;20.00;99.90;;;;;;5075205;28;19951;-79
2022/10/04 11:21:16;;;;;;;;;;;20.10;99.90;;;;;;5077809;28;19967;-80
2022/10/04 11:24:13;;;;;;;;;;;20.30;99.90;;;;;;5059699;28;19924;-80
2022/10/04 11:26:52;;;;;;;;;;;20.40;99.90;;;;;;5075872;28;19979;-79
2022/10/04 11:29:27;;;;;;;;;;;20.60;99.90;;;;;;5092852;28;20465;-80
2022/10/04 11:32:11;;;;;;;;;;;20.70;99.90;;;;;;5074111;28;20587;-79
2022/10/04 11:34:56;;;;;;;;;;;20.70;99.90;;;;;;5037726;28;19950;-81
2022/10/04 11:37:33;;;;;;;;;;;20.80;99.90;;;;;;5083707;28;19947;-81
2022/10/04 11:40:05;;;;;;;;;;;20.80;99.90;;;;;;5077432;28;20346;-80
2022/10/04 11:42:43;;;;;;;;;;;20.90;99.90;;;;;;5074818;28;19928;-82
2022/10/04 11:45:32;;;;;;;;;;;20.90;99.90;;;;;;5075026;28;19935;-81
2022/10/04 11:48:05;;;;;;;;;;;21.00;99.90;;;;;;5091268;28;19928;-81
2022/10/04 11:50:38;;;;;;;;;;;21.20;99.90;;;;;;5081388;28;20378;-81
2022/10/04 11:53:24;;;;;;;;;;;21.20;99.90;;;;;;5088359;28;19933;-81
2022/10/04 11:56:05;;;;;;;;;;;21.10;99.90;;;;;;5082809;28;20387;-82
2022/10/04 11:58:38;;;;;;;;;;;21.00;99.90;;;;;;5093218;28;19928;-82
2022/10/04 12:01:37;;;;;;;;;;;20.90;99.90;;;;;;5088720;28;20319;-79
2022/10/04 12:04:24;;;;;;;;;;;20.90;99.90;;;;;;5050512;28;19984;-80
2022/10/04 12:07:01;;;;;;;;;;;21.00;99.90;;;;;;5072610;28;19978;-83
2022/10/04 12:09:32;;;;;;;;;;;21.10;99.90;;;;;;5082210;28;21700;-81
2022/10/04 12:15:22;;;;;;;;;;;21.40;99.90;;;;;;5078586;28;19933;-80
2022/10/04 12:18:13;;;;;;;;;;;21.60;99.90;;;;;;5081176;28;19928;-81
2022/10/04 12:20:55;;;;;;;;;;;21.60;99.90;;;;;;5090496;28;19975;-80
2022/10/04 12:23:39;;;;;;;;;;;21.60;99.90;;;;;;5090135;28;19928;-80
2022/10/04 12:26:14;;;;;;;;;;;21.60;99.90;;;;;;5082498;28;19935;-80
2022/10/04 12:28:50;;;;;;;;;;;21.80;99.90;;;;;;5084996;28;19935;-80
2022/10/04 12:31:24;;;;;;;;;;;21.90;99.90;;;;;;5090229;28;20368;-80
2022/10/04 12:33:56;;;;;;;;;;;21.90;99.90;;;;;;5091647;28;20315;-80
2022/10/04 12:36:28;;;;;;;;;;;21.80;99.90;;;;;;5092633;28;19932;-80
2022/10/04 12:39:04;;;;;;;;;;;21.70;99.90;;;;;;5073192;28;20019;-80
2022/10/04 12:41:37;;;;;;;;;;;21.70;99.90;;;;;;5079081;28;19974;-80
2022/10/04 12:44:12;;;;;;;;;;;21.80;99.90;;;;;;5076020;28;19959;-79
2022/10/04 12:46:50;;;;;;;;;;;21.70;99.90;;;;;;5074981;28;20035;-79
2022/10/04 12:49:22;;;;;;;;;;;21.70;99.90;;;;;;5075348;28;19928;-79
2022/10/04 12:51:58;;;;;;;;;;;21.60;99.90;;;;;;5073856;28;19939;-80
2022/10/04 12:54:36;;;;;;;;;;;21.60;99.90;;;;;;5076136;28;20683;-79
2022/10/04 12:57:08;;;;;;;;;;;21.60;99.90;;;;;;5076653;28;19994;-79
2022/10/04 12:59:49;;;;;;;;;;;21.60;99.90;;;;;;5084383;28;20483;-80
2022/10/04 13:02:37;;;;;;;;;;;21.50;99.90;;;;;;5077993;28;19977;-79
2022/10/04 13:05:12;;;;;;;;;;;21.50;99.90;;;;;;5049129;28;19983;-79
2022/10/04 13:07:47;;;;;;;;;;;21.40;99.90;;;;;;5087492;28;19924;-79
2022/10/04 13:10:28;;;;;;;;;;;21.40;99.90;;;;;;5088976;28;20287;-79
2022/10/04 13:13:12;;;;;;;;;;;21.40;99.90;;;;;;5087033;28;19981;-79
2022/10/04 13:15:43;;;;;;;;;;;21.50;99.90;;;;;;5085729;28;19928;-78
2022/10/04 13:18:17;;;;;;;;;;;21.60;99.90;;;;;;5089703;28;19932;-79
2022/10/04 13:20:50;;;;;;;;;;;21.70;99.90;;;;;;5086159;28;19928;-78
2022/10/04 13:23:33;;;;;;;;;;;21.70;99.90;;;;;;5072260;28;19974;-78
2022/10/04 13:26:08;;;;;;;;;;;21.80;99.90;;;;;;5076484;28;19998;-79
2022/10/04 13:28:40;;;;;;;;;;;21.70;99.90;;;;;;5081505;28;19928;-79
2022/10/04 13:31:10;;;;;;;;;;;21.60;99.90;;;;;;5084095;28;19948;-79
2022/10/04 13:33:42;;;;;;;;;;;22.60;99.90;;;;;;5085976;28;20291;-78
2022/10/04 13:36:12;;;;;;;;;;;21.60;99.90;;;;;;5078502;28;19932;-78
2022/10/04 13:38:47;;;;;;;;;;;21.50;99.90;;;;;;5075307;28;19928;-77
2022/10/04 13:41:20;;;;;;;;;;;21.50;99.90;;;;;;5071611;28;19928;-77
2022/10/04 13:44:05;;;;;;;;;;;21.50;99.90;;;;;;5070154;28;19944;-77
2022/10/04 13:46:35;;;;;;;;;;;21.50;99.90;;;;;;5076348;28;20043;-78
2022/10/04 13:49:06;;;;;;;;;;;21.50;99.90;;;;;;5074233;28;20409;-79
2022/10/04 13:51:39;;;;;;;;;;;21.40;99.90;;;;;;5081431;28;19928;-78
2022/10/04 13:56:58;;;;;;;;;;;21.50;99.90;;;;;;5068127;28;19932;-79
2022/10/04 13:59:31;;;;;;;;;;;21.50;99.90;;;;;;5065946;28;19951;-80
2022/10/04 14:02:12;;;;;;;;;;;21.50;99.90;;;;;;5065524;28;19948;-81
2022/10/04 14:05:00;;;;;;;;;;;21.50;99.90;;;;;;5069912;28;19967;-76
2022/10/04 14:07:45;;;;;;;;;;;21.50;99.90;;;;;;5071401;28;19932;-78
2022/10/04 14:10:22;;;;;;;;;;;21.50;99.90;;;;;;5069782;28;19927;-77
2022/10/04 14:13:07;;;;;;;;;;;21.50;99.90;;;;;;5075443;28;19928;-78
2022/10/04 14:15:52;;;;;;;;;;;21.50;99.90;;;;;;5071845;28;19929;-78
2022/10/04 14:18:31;;;;;;;;;;;21.40;99.90;;;;;;5084805;28;20027;-78
2022/10/04 14:21:13;;;;;;;;;;;21.30;99.90;;;;;;5072994;28;20478;-78
2022/10/04 14:24:04;;;;;;;;;;;21.30;99.90;;;;;;5081952;28;19932;-78
2022/10/04 14:26:50;;;;;;;;;;;21.30;99.90;;;;;;5058196;28;19951;-78
2022/10/04 14:29:33;;;;;;;;;;;21.30;99.90;;;;;;5086884;28;19943;-79
2022/10/04 14:32:19;;;;;;;;;;;21.20;99.90;;;;;;5080247;28;20022;-76
2022/10/04 14:34:54;;;;;;;;;;;21.10;99.90;;;;;;5076504;28;19931;-76
2022/10/04 14:37:40;;;;;;;;;;;21.10;99.90;;;;;;5077523;28;19932;-76
2022/10/04 14:40:25;;;;;;;;;;;21.00;99.90;;;;;;5075262;28;19934;-77
2022/10/04 14:43:13;;;;;;;;;;;20.90;99.90;;;;;;5072590;28;19924;-77
2022/10/04 14:45:44;;;;;;;;;;;20.70;99.90;;;;;;5072625;28;19929;-77
2022/10/04 14:48:29;;;;;;;;;;;20.70;99.90;;;;;;5072546;28;19932;-77
2022/10/04 14:51:06;;;;;;;;;;;20.60;99.90;;;;;;5076369;28;19925;-76
2022/10/04 14:53:36;;;;;;;;;;;20.50;99.90;;;;;;5076866;28;20058;-76
2022/10/04 14:56:19;;;;;;;;;;;20.40;99.90;;;;;;5075599;28;19924;-77
2022/10/04 14:58:52;;;;;;;;;;;20.40;99.90;;;;;;5078452;28;19925;-77
2022/10/04 15:01:21;;;;;;;;;;;20.30;99.90;;;;;;5078606;28;19938;-77
2022/10/04 15:04:10;;;;;;;;;;;20.30;99.90;;;;;;5080854;28;19932;-76
2022/10/04 15:06:40;;;;;;;;;;;20.30;99.90;;;;;;5091639;28;19956;-77
2022/10/04 15:09:14;;;;;;;;;;;20.30;99.90;;;;;;5091477;28;19969;-77
2022/10/04 15:11:43;;;;;;;;;;;20.30;99.90;;;;;;5077248;28;19929;-77
2022/10/04 15:14:36;;;;;;;;;;;20.30;99.90;;;;;;5078634;28;19916;-77
2022/10/04 15:17:07;;;;;;;;;;;20.30;99.90;;;;;;5053260;28;19941;-77
2022/10/04 15:19:37;;;;;;;;;;;20.30;99.90;;;;;;5093788;28;19971;-77